Time;durP1;ratioP1;P1;durP2;ratioP2;P2;SDS_P1;SDS_P2;PMS_P1;PMS_P2;Temp;Humidity;BMP_temperature;BMP_pressure;BME280_temperature;BME280_humidity;BME280_pressure;Samples;Min_cycle;Max_cycle;Signal;HPM_P1;HPM_P2
2022/05/18 00:00:27;;;;;;;4.05;1.95;;;;;;;19.13;67.43;101628.94;5020272;28;20029;-84
2022/05/18 00:03:06;;;;;;;5.65;1.80;;;;;;;19.05;67.86;101637.00;5018797;28;20115;-84
2022/05/18 00:05:33;;;;;;;8.07;1.98;;;;;;;19.06;67.97;101644.69;5023019;28;20634;-84
2022/05/18 00:07:59;;;;;;;3.92;1.88;;;;;;;19.09;67.83;101643.47;5025467;28;20033;-84
2022/05/18 00:10:25;;;;;;;3.47;1.73;;;;;;;19.03;67.89;101644.25;5024668;28;20029;-84
2022/05/18 00:12:50;;;;;;;11.57;2.10;;;;;;;18.99;68.27;101645.66;5024884;28;20033;-83
2022/05/18 00:15:19;;;;;;;5.47;1.60;;;;;;;18.98;68.29;101639.56;5019882;28;20021;-83
2022/05/18 00:17:45;;;;;;;4.70;1.75;;;;;;;19.00;68.02;101648.06;5036641;28;20021;-83
2022/05/18 00:20:11;;;;;;;4.93;1.95;;;;;;;18.90;68.68;101644.97;5024091;28;20044;-83
2022/05/18 00:22:45;;;;;;;4.45;1.80;;;;;;;18.88;68.50;101636.47;5023333;28;20030;-83
2022/05/18 00:25:11;;;;;;;4.80;1.80;;;;;;;18.90;68.56;101644.16;5021974;28;20222;-84
2022/05/18 00:27:36;;;;;;;6.13;2.67;;;;;;;18.88;68.71;101641.72;5003145;28;20049;-84
2022/05/18 00:30:03;;;;;;;4.82;2.10;;;;;;;18.76;69.17;101654.53;5019870;28;20041;-83
2022/05/18 00:32:28;;;;;;;7.35;2.05;;;;;;;18.65;69.83;101644.53;5017073;28;20026;-83
2022/05/18 00:34:54;;;;;;;9.50;2.70;;;;;;;18.67;69.72;101656.47;5022625;28;20505;-84
2022/05/18 00:37:20;;;;;;;7.47;2.00;;;;;;;18.72;69.35;101655.09;5016922;28;20137;-84
2022/05/18 00:39:45;;;;;;;4.70;2.08;;;;;;;18.68;69.53;101660.75;5018050;28;20037;-84
2022/05/18 00:42:22;;;;;;;6.75;2.10;;;;;;;18.58;69.92;101664.69;5017758;28;20048;-83
2022/05/18 00:44:48;;;;;;;4.20;2.22;;;;;;;18.54;70.04;101660.81;5020277;28;20057;-84
2022/05/18 00:47:14;;;;;;;4.88;2.17;;;;;;;18.56;70.72;101661.44;5020668;28;20033;-84
2022/05/18 00:49:43;;;;;;;3.25;1.90;;;;;;;18.49;70.57;101667.41;5022925;28;20465;-84
2022/05/18 00:52:09;;;;;;;3.28;1.90;;;;;;;18.41;70.80;101664.91;5018592;28;20041;-84
2022/05/18 00:54:36;;;;;;;2.88;1.73;;;;;;;18.39;70.93;101672.16;5023987;28;20676;-83
2022/05/18 00:57:17;;;;;;;6.00;1.80;;;;;;;18.30;71.75;101668.03;5024092;28;20029;-83
2022/05/18 00:59:56;;;;;;;7.13;2.10;;;;;;;18.28;71.99;101672.66;5034251;28;20034;-83
2022/05/18 01:02:26;;;;;;;3.15;1.77;;;;;;;18.24;72.17;101674.03;5005496;28;20099;-83
2022/05/18 01:04:56;;;;;;;6.07;2.40;;;;;;;18.21;72.28;101664.69;5024455;28;20041;-83
2022/05/18 01:07:29;;;;;;;3.70;2.05;;;;;;;18.18;72.72;101674.78;5038672;28;20075;-83
2022/05/18 01:09:55;;;;;;;4.82;2.03;;;;;;;18.12;73.15;101671.09;5023840;28;20080;-84
2022/05/18 01:12:22;;;;;;;4.10;2.22;;;;;;;18.14;72.93;101676.13;5020814;28;20037;-84
2022/05/18 01:14:56;;;;;;;5.80;2.30;;;;;;;18.04;72.98;101677.22;5006647;28;20038;-82
2022/05/18 01:17:25;;;;;;;6.50;2.30;;;;;;;17.98;73.56;101683.22;5007046;28;22736;-83
2022/05/18 01:19:53;;;;;;;6.85;2.00;;;;;;;17.89;74.33;101679.91;5019435;28;20033;-83
2022/05/18 01:22:56;;;;;;;5.10;2.35;;;;;;;17.85;74.41;101678.63;5036654;28;20033;-83
2022/05/18 01:25:47;;;;;;;5.75;2.08;;;;;;;17.82;74.50;101683.38;5019445;28;20037;-84
2022/05/18 01:28:13;;;;;;;8.75;2.75;;;;;;;17.76;74.73;101681.50;5019611;28;20037;-83
2022/05/18 01:30:42;;;;;;;6.72;2.20;;;;;;;17.71;74.91;101682.06;5005271;28;20030;-84
2022/05/18 01:33:09;;;;;;;4.10;2.55;;;;;;;17.63;75.07;101679.50;5019026;28;20060;-83
2022/05/18 01:35:39;;;;;;;7.80;2.75;;;;;;;17.61;75.05;101677.09;5024486;28;20041;-82
2022/05/18 01:38:06;;;;;;;7.55;2.63;;;;;;;17.61;74.66;101684.13;5021333;28;20056;-84
2022/05/18 01:40:31;;;;;;;5.93;2.95;;;;;;;17.60;74.53;101690.38;5003793;28;20113;-84
2022/05/18 01:43:19;;;;;;;5.50;3.40;;;;;;;17.52;74.82;101686.03;5019392;28;20462;-84
2022/05/18 01:45:52;;;;;;;6.93;3.17;;;;;;;17.57;75.00;101690.72;5001331;28;20017;-84
2022/05/18 01:48:20;;;;;;;6.63;3.13;;;;;;;17.67;74.91;101689.47;5019401;28;20052;-84
2022/05/18 01:50:48;;;;;;;15.18;4.00;;;;;;;17.62;75.14;101683.13;5019782;28;20042;-84
2022/05/18 01:53:13;;;;;;;8.45;3.92;;;;;;;17.65;74.93;101688.84;5034998;28;20033;-85
2022/05/18 01:55:39;;;;;;;7.80;3.03;;;;;;;17.54;75.19;101688.44;5023109;28;20099;-84
2022/05/18 01:58:05;;;;;;;7.55;3.05;;;;;;;17.42;75.86;101693.34;5039593;28;20236;-83
2022/05/18 02:00:32;;;;;;;5.57;3.15;;;;;;;17.41;75.60;101689.09;5007683;28;20035;-84
2022/05/18 02:02:58;;;;;;;10.05;3.22;;;;;;;17.38;75.82;101692.06;5022801;28;20037;-84
2022/05/18 02:05:24;;;;;;;10.10;3.28;;;;;;;17.43;75.88;101694.97;5026335;28;20126;-84
2022/05/18 02:07:50;;;;;;;7.10;3.38;;;;;;;17.40;75.90;101696.13;5025035;28;20568;-83
2022/05/18 02:10:15;;;;;;;5.13;2.70;;;;;;;17.38;76.17;101694.69;5023833;28;20044;-82
2022/05/18 02:12:41;;;;;;;6.72;2.95;;;;;;;17.37;76.27;101693.06;5009335;28;20030;-84
2022/05/18 02:15:07;;;;;;;7.10;3.13;;;;;;;17.29;76.54;101697.41;5024208;28;20113;-84
2022/05/18 02:17:32;;;;;;;6.28;3.38;;;;;;;17.22;76.67;101693.06;5025739;28;20628;-83
2022/05/18 02:19:58;;;;;;;5.28;3.00;;;;;;;17.26;76.50;101695.13;5027424;28;20033;-83
2022/05/18 02:22:25;;;;;;;5.03;3.10;;;;;;;17.18;76.76;101692.59;5026632;28;20045;-84
2022/05/18 02:24:51;;;;;;;8.20;3.30;;;;;;;17.13;76.64;101697.53;5022604;28;20042;-84
2022/05/18 02:27:17;;;;;;;8.70;3.42;;;;;;;17.19;76.75;101688.16;5021479;28;20033;-83
2022/05/18 02:29:42;;;;;;;11.88;3.95;;;;;;;17.12;76.88;101688.03;5021878;28;20438;-82
2022/05/18 02:32:09;;;;;;;5.88;3.33;;;;;;;17.05;77.13;101692.38;5009384;28;20025;-84
2022/05/18 02:34:35;;;;;;;8.07;2.72;;;;;;;16.95;77.54;101690.00;5025210;28;20076;-84
2022/05/18 02:37:01;;;;;;;8.07;2.70;;;;;;;16.91;77.70;101686.94;5007621;28;21398;-84
2022/05/18 02:39:26;;;;;;;10.25;3.28;;;;;;;16.91;77.71;101689.56;5021985;28;20120;-84
2022/05/18 02:41:52;;;;;;;8.57;3.22;;;;;;;16.91;77.79;101689.56;5003806;28;20026;-84
2022/05/18 02:44:18;;;;;;;9.95;4.30;;;;;;;16.84;78.15;101688.63;5022325;28;20040;-83
2022/05/18 02:46:44;;;;;;;12.30;4.38;;;;;;;16.85;77.85;101686.81;5025052;28;20095;-83
2022/05/18 02:49:10;;;;;;;8.90;4.38;;;;;;;16.93;77.57;101690.19;5024664;28;20033;-83
2022/05/18 02:51:36;;;;;;;7.15;3.40;;;;;;;16.96;77.26;101688.19;5028353;28;20048;-84
2022/05/18 02:56:05;;;;;;;6.28;3.35;;;;;;;16.86;77.61;101685.84;5020788;28;20037;-84
2022/05/18 02:56:47;;;;;;;10.05;4.07;;;;;;;16.84;77.70;101687.78;5021984;28;20037;-83
2022/05/18 02:59:12;;;;;;;6.00;3.83;;;;;;;16.91;77.65;101693.94;5024629;28;20040;-84
2022/05/18 03:01:39;;;;;;;7.10;3.38;;;;;;;16.77;77.77;101692.09;5019886;28;20046;-83
2022/05/18 03:04:05;;;;;;;10.30;3.92;;;;;;;16.75;77.85;101694.88;5019459;28;20478;-83
2022/05/18 03:06:30;;;;;;;8.30;3.40;;;;;;;16.87;77.00;101688.25;5025243;28;20024;-85
2022/05/18 03:08:56;;;;;;;6.93;3.20;;;;;;;16.80;77.49;101682.09;5023918;28;20379;-83
2022/05/18 03:11:21;;;;;;;6.57;3.22;;;;;;;16.77;77.52;101692.91;5023286;28;20037;-84
2022/05/18 03:13:47;;;;;;;5.13;3.35;;;;;;;16.68;77.67;101691.31;5023602;28;20041;-84
2022/05/18 03:16:12;;;;;;;5.25;3.00;;;;;;;16.62;78.22;101697.25;5022492;28;20052;-84
2022/05/18 03:18:38;;;;;;;5.85;3.42;;;;;;;16.59;78.16;101703.63;5021150;28;20044;-84
2022/05/18 03:23:48;;;;;;;5.68;3.35;;;;;;;16.57;78.28;101710.84;5037564;28;20025;-81
2022/05/18 03:26:16;;;;;;;8.98;3.90;;;;;;;16.64;78.12;101705.75;5021802;28;20102;-84
2022/05/18 03:28:44;;;;;;;6.63;3.42;;;;;;;16.54;78.49;101712.03;5007933;28;20061;-84
2022/05/18 03:31:10;;;;;;;7.55;3.97;;;;;;;16.55;78.24;101715.44;5022364;28;20033;-84
2022/05/18 03:33:36;;;;;;;8.05;4.22;;;;;;;16.53;78.50;101709.59;5022286;28;20096;-83
2022/05/18 03:36:03;;;;;;;6.32;3.50;;;;;;;16.48;78.69;101714.50;5018875;28;20037;-83
2022/05/18 03:38:29;;;;;;;5.05;3.38;;;;;;;16.49;78.70;101716.16;5024961;28;20056;-84
2022/05/18 03:40:55;;;;;;;7.18;4.05;;;;;;;16.51;78.71;101720.22;5007963;28;20434;-84
2022/05/18 03:43:21;;;;;;;6.35;3.72;;;;;;;16.48;78.73;101717.97;5022311;28;20026;-84
2022/05/18 03:45:46;;;;;;;9.40;3.90;;;;;;;16.62;78.26;101712.97;5022136;28;20095;-84
2022/05/18 03:48:13;;;;;;;7.88;4.00;;;;;;;16.59;78.21;101715.94;5027854;28;20111;-84
2022/05/18 03:50:42;;;;;;;9.02;3.25;;;;;;;16.52;78.52;101718.44;5007898;28;20064;-84
2022/05/18 03:53:09;;;;;;;11.98;4.20;;;;;;;16.50;78.74;101723.00;5039635;28;20029;-84
2022/05/18 03:55:37;;;;;;;7.90;3.75;;;;;;;16.47;78.77;101718.13;5012132;28;20394;-86
2022/05/18 03:58:03;;;;;;;14.80;4.10;;;;;;;16.50;78.92;101717.78;5023551;28;20478;-85
2022/05/18 04:00:30;;;;;;;16.58;4.07;;;;;;;16.47;79.08;101725.97;5036956;28;20131;-84
2022/05/18 04:02:57;;;;;;;7.22;4.15;;;;;;;16.49;78.83;101729.25;5024326;28;20076;-83
2022/05/18 04:05:23;;;;;;;8.00;4.18;;;;;;;16.44;79.14;101734.16;5021268;28;20112;-83
2022/05/18 04:07:49;;;;;;;6.35;3.63;;;;;;;16.38;79.55;101734.88;5021908;28;20140;-83
2022/05/18 04:10:16;;;;;;;5.10;3.50;;;;;;;16.39;79.44;101734.69;5006095;28;20060;-84
2022/05/18 04:12:42;;;;;;;9.18;4.18;;;;;;;16.50;79.19;101736.09;5005041;28;20021;-84
2022/05/18 04:15:08;;;;;;;10.50;3.67;;;;;;;16.53;79.11;101752.28;5022224;28;20118;-85
2022/05/18 04:17:35;;;;;;;6.20;3.42;;;;;;;16.58;79.13;101748.34;5024446;28;20049;-83
2022/05/18 04:20:05;;;;;;;7.78;3.72;;;;;;;16.62;79.16;101744.38;5005388;28;20033;-84
2022/05/18 04:22:31;;;;;;;11.27;3.53;;;;;;;16.59;79.41;101739.50;5021732;28;20557;-84
2022/05/18 04:25:01;;;;;;;16.25;4.57;;;;;;;16.61;79.20;101746.16;5008322;28;20026;-84
2022/05/18 04:27:28;;;;;;;8.80;4.40;;;;;;;16.54;79.54;101747.88;5023842;28;20687;-83
2022/05/18 04:29:54;;;;;;;12.27;5.45;;;;;;;16.70;79.17;101742.50;5020038;28;20029;-84
2022/05/18 04:32:21;;;;;;;10.32;4.10;;;;;;;16.70;79.09;101742.50;5008065;28;20108;-83
2022/05/18 04:34:48;;;;;;;12.35;4.88;;;;;;;16.65;79.28;101741.41;5020216;28;20046;-84
2022/05/18 04:37:15;;;;;;;6.15;3.50;;;;;;;16.67;79.36;101747.28;5022633;28;20041;-83
2022/05/18 04:39:41;;;;;;;9.70;3.90;;;;;;;16.70;79.06;101752.19;5023920;28;20037;-82
2022/05/18 04:42:06;;;;;;;8.63;4.50;;;;;;;16.73;78.94;101751.84;5020290;28;20040;-86
2022/05/18 04:44:32;;;;;;;5.63;3.58;;;;;;;16.66;79.28;101756.16;5021324;28;20159;-84
2022/05/18 04:46:58;;;;;;;9.60;4.32;;;;;;;16.72;79.15;101758.88;5022478;28;20025;-83
2022/05/18 04:49:25;;;;;;;7.65;4.38;;;;;;;16.74;79.23;101767.41;5024322;28;20037;-84
2022/05/18 04:51:50;;;;;;;12.32;4.57;;;;;;;16.91;78.51;101772.53;5021980;28;20425;-84
2022/05/18 04:54:16;;;;;;;10.75;4.57;;;;;;;16.86;78.74;101765.22;5004314;28;20032;-87
2022/05/18 04:56:41;;;;;;;10.23;4.47;;;;;;;16.84;78.91;101769.81;5021817;28;20436;-83
2022/05/18 04:59:07;;;;;;;9.30;4.40;;;;;;;16.95;78.42;101770.38;5037230;28;21411;-84
2022/05/18 05:01:34;;;;;;;12.23;4.53;;;;;;;16.97;78.39;101771.88;5024223;28;20149;-86
2022/05/18 05:04:00;;;;;;;8.27;4.05;;;;;;;17.09;77.99;101777.50;5024704;28;20120;-83
2022/05/18 05:06:26;;;;;;;12.07;4.40;;;;;;;17.12;77.96;101783.22;5022741;28;20040;-82
2022/05/18 05:08:52;;;;;;;8.50;4.43;;;;;;;17.17;77.23;101785.28;5021600;28;20037;-90
2022/05/18 05:11:18;;;;;;;6.07;3.75;;;;;;;17.10;77.40;101784.34;5023688;28;20127;-85
2022/05/18 05:13:43;;;;;;;9.75;4.70;;;;;;;17.14;77.31;101793.53;5023215;28;20033;-83
2022/05/18 05:16:11;;;;;;;14.50;4.60;;;;;;;17.21;77.21;101783.13;5024351;28;20037;-85
2022/05/18 05:18:37;;;;;;;6.75;4.43;;;;;;;17.32;77.32;101788.75;5024362;28;20038;-84
2022/05/18 05:21:03;;;;;;;11.20;4.85;;;;;;;17.44;76.24;101785.72;5003067;28;20086;-85
2022/05/18 05:23:29;;;;;;;9.60;4.50;;;;;;;17.44;76.16;101797.03;5023853;28;20505;-83
2022/05/18 05:25:56;;;;;;;11.70;5.07;;;;;;;17.53;75.77;101789.91;5021902;28;20116;-84
2022/05/18 05:28:22;;;;;;;11.00;4.43;;;;;;;17.71;75.57;101787.75;5024650;28;20064;-85
2022/05/18 05:30:48;;;;;;;8.13;4.80;;;;;;;17.72;75.18;101788.56;5040673;28;20037;-83
2022/05/18 05:33:13;;;;;;;11.85;4.57;;;;;;;17.86;74.63;101789.63;5027553;28;20080;-84
2022/05/18 05:35:43;;;;;;;7.72;4.85;;;;;;;17.86;74.80;101792.25;5025912;28;20391;-83
2022/05/18 05:38:10;;;;;;;8.85;4.72;;;;;;;17.89;74.85;101800.56;5011478;28;20072;-84
2022/05/18 05:40:37;;;;;;;11.65;4.68;;;;;;;18.09;74.50;101794.78;5026409;28;20032;-84
2022/05/18 05:43:10;;;;;;;6.18;5.00;;;;;;;18.23;73.70;101795.75;5027473;28;20111;-84
2022/05/18 05:45:37;;;;;;;9.20;4.97;;;;;;;18.43;72.92;101801.28;5008982;28;20041;-85
2022/05/18 05:48:04;;;;;;;9.55;4.63;;;;;;;18.64;71.60;101800.50;5027328;28;20033;-84
2022/05/18 05:50:32;;;;;;;14.32;5.05;;;;;;;18.83;71.39;101802.53;5042392;28;20049;-84
2022/05/18 05:52:58;;;;;;;12.25;5.05;;;;;;;19.14;69.11;101793.56;5025458;28;20036;-83
2022/05/18 05:55:25;;;;;;;9.00;4.82;;;;;;;19.31;68.71;101796.72;5041040;28;20038;-87
2022/05/18 05:57:54;;;;;;;9.50;4.95;;;;;;;19.58;67.98;101800.38;5024980;28;20099;-84
2022/05/18 06:00:21;;;;;;;8.93;5.03;;;;;;;19.73;67.54;101794.22;5010599;28;20037;-84
2022/05/18 06:02:46;;;;;;;14.60;4.90;;;;;;;20.06;66.64;101802.34;5024694;28;20179;-84
2022/05/18 06:05:13;;;;;;;10.20;4.65;;;;;;;20.30;65.19;101806.25;5024600;28;20029;-83
2022/05/18 06:07:38;;;;;;;7.65;3.92;;;;;;;20.64;64.52;101803.78;5041235;28;20509;-87
2022/05/18 06:10:04;;;;;;;10.82;3.90;;;;;;;20.68;62.88;101800.56;5028498;28;20036;-85
2022/05/18 06:12:29;;;;;;;7.88;4.13;;;;;;;20.86;62.73;101805.25;5023570;28;20033;-85
2022/05/18 06:14:57;;;;;;;10.07;3.92;;;;;;;20.95;62.44;101814.59;5024165;28;20029;-84
2022/05/18 06:17:22;;;;;;;9.38;3.30;;;;;;;21.16;61.12;101823.34;5008970;28;20041;-84
2022/05/18 06:19:48;;;;;;;8.05;3.15;;;;;;;21.52;61.18;101816.91;5026735;28;20038;-84
2022/05/18 06:22:32;;;;;;;12.45;3.50;;;;;;;21.60;60.35;101823.78;5022873;28;20068;-85
2022/05/18 06:25:18;;;;;;;8.02;3.50;;;;;;;21.66;60.38;101830.88;5019759;28;20100;-84
2022/05/18 06:27:44;;;;;;;5.93;3.40;;;;;;;21.77;59.47;101820.53;5025839;28;20065;-84
2022/05/18 06:30:12;;;;;;;11.50;3.65;;;;;;;22.01;59.19;101820.88;5026419;28;20120;-84
2022/05/18 06:32:38;;;;;;;7.03;3.55;;;;;;;22.29;58.08;101822.44;5011164;28;20091;-84
2022/05/18 06:35:05;;;;;;;6.05;3.60;;;;;;;22.46;57.51;101814.84;5023599;28;20037;-84
2022/05/18 06:37:31;;;;;;;9.43;3.47;;;;;;;22.53;57.03;101823.56;5021663;28;20110;-85
2022/05/18 06:39:56;;;;;;;6.85;3.13;;;;;;;22.65;57.01;101819.22;5023698;28;20081;-85
2022/05/18 06:42:22;;;;;;;8.95;3.03;;;;;;;22.82;56.17;101819.50;5021390;28;20788;-84
2022/05/18 06:44:51;;;;;;;9.13;3.55;;;;;;;22.83;55.47;101807.94;5024537;28;20083;-84
2022/05/18 06:47:17;;;;;;;8.27;4.18;;;;;;;22.92;54.98;101805.81;5024945;28;20098;-84
2022/05/18 06:49:42;;;;;;;8.85;4.50;;;;;;;22.94;54.52;101809.88;5007367;28;20046;-85
2022/05/18 06:52:09;;;;;;;8.13;3.05;;;;;;;23.07;53.86;101816.94;5024563;28;20037;-84
2022/05/18 06:54:36;;;;;;;8.15;3.03;;;;;;;23.42;53.76;101805.88;5021296;28;20041;-85
2022/05/18 06:57:02;;;;;;;6.50;2.90;;;;;;;23.77;53.42;101802.69;5024411;28;20044;-85
2022/05/18 06:59:27;;;;;;;7.53;3.83;;;;;;;24.16;52.40;101799.84;5025947;28;20034;-84
2022/05/18 07:01:53;;;;;;;9.40;3.72;;;;;;;24.12;51.76;101807.41;5025401;28;20091;-84
2022/05/18 07:04:18;;;;;;;9.95;3.80;;;;;;;24.21;52.86;101800.00;5024796;28;20103;-84
2022/05/18 07:06:45;;;;;;;10.63;3.33;;;;;;;24.68;52.49;101808.16;5026132;28;20033;-84
2022/05/18 07:09:21;;;;;;;5.55;3.58;;;;;;;24.67;52.00;101817.13;5028655;28;20025;-84
2022/05/18 07:11:49;;;;;;;7.80;3.28;;;;;;;25.08;51.25;101806.75;5020817;28;20041;-82
2022/05/18 07:14:20;;;;;;;9.52;3.90;;;;;;;25.36;50.75;101809.56;5020806;28;20085;-82
2022/05/18 07:16:46;;;;;;;7.25;3.30;;;;;;;25.93;50.08;101803.63;5037439;28;20502;-83
2022/05/18 07:19:13;;;;;;;8.60;3.67;;;;;;;26.38;48.65;101810.88;5025279;28;20030;-84
2022/05/18 07:21:39;;;;;;;8.88;3.78;;;;;;;26.61;47.56;101809.19;5023265;28;20048;-83
2022/05/18 07:24:05;;;;;;;13.50;4.63;;;;;;;26.64;46.35;101802.59;5023967;28;20038;-82
2022/05/18 07:26:31;;;;;;;9.43;3.63;;;;;;;26.71;46.60;101805.91;5024011;28;20025;-84
2022/05/18 07:28:58;;;;;;;9.25;3.20;;;;;;;26.70;45.53;101807.75;5009302;28;20176;-84
2022/05/18 07:31:25;;;;;;;9.30;3.88;;;;;;;26.49;46.62;101801.25;5043217;28;20032;-84
2022/05/18 07:33:50;;;;;;;7.00;3.42;;;;;;;26.55;46.27;101805.59;5023575;28;20033;-83
2022/05/18 07:36:17;;;;;;;9.40;3.50;;;;;;;26.82;47.44;101802.34;5008239;28;20040;-83
2022/05/18 07:38:43;;;;;;;6.85;2.90;;;;;;;27.25;46.50;101811.59;5022155;28;20044;-85
2022/05/18 07:41:11;;;;;;;5.75;2.38;;;;;;;27.50;45.56;101797.00;5006570;28;20120;-82
2022/05/18 07:43:37;;;;;;;12.98;2.97;;;;;;;27.32;42.21;101808.75;5027810;28;20120;-85
2022/05/18 07:46:04;;;;;;;8.57;3.13;;;;;;;27.44;42.92;101803.34;5007378;28;20116;-84
2022/05/18 07:48:29;;;;;;;6.75;3.22;;;;;;;27.92;43.29;101804.53;5022272;28;20072;-83
2022/05/18 07:50:57;;;;;;;5.60;2.80;;;;;;;27.91;43.15;101801.03;5021722;28;20032;-83
2022/05/18 07:53:24;;;;;;;9.55;2.85;;;;;;;27.44;44.22;101811.31;5024335;28;20508;-83
2022/05/18 07:55:49;;;;;;;7.90;2.50;;;;;;;28.04;43.77;101813.19;5026094;28;20037;-84
2022/05/18 07:58:17;;;;;;;10.65;2.10;;;;;;;28.40;42.84;101813.56;5018107;28;20045;-84
2022/05/18 08:00:44;;;;;;;7.97;2.80;;;;;;;28.73;42.08;101809.91;5006534;28;20128;-83
2022/05/18 08:03:09;;;;;;;10.88;3.75;;;;;;;28.65;41.80;101813.03;5008736;28;20037;-84
2022/05/18 08:05:36;;;;;;;8.98;2.90;;;;;;;28.34;42.22;101815.38;5022799;28;20037;-83
2022/05/18 08:08:10;;;;;;;7.38;2.40;;;;;;;28.45;42.54;101821.63;5039189;28;20078;-84
2022/05/18 08:16:05;;;;;;;12.77;2.78;;;;;;;28.99;41.51;101815.47;5038452;28;20040;-83
2022/05/18 08:18:30;;;;;;;8.23;2.60;;;;;;;29.27;40.74;101809.00;5022990;28;20128;-83
2022/05/18 08:20:55;;;;;;;7.47;2.45;;;;;;;29.65;40.60;101809.75;5022167;28;20036;-83
2022/05/18 08:23:21;;;;;;;5.53;2.50;;;;;;;29.94;39.67;101811.22;5023141;28;20485;-83
2022/05/18 08:25:47;;;;;;;6.30;2.45;;;;;;;30.15;38.91;101810.19;5024775;28;20065;-83
2022/05/18 08:28:14;;;;;;;4.28;2.30;;;;;;;30.19;38.85;101807.81;5020825;28;20038;-84
2022/05/18 08:30:40;;;;;;;11.90;2.38;;;;;;;30.16;38.11;101805.66;5025719;28;20034;-84
2022/05/18 08:33:05;;;;;;;6.65;2.25;;;;;;;30.53;37.75;101807.34;5020835;28;20025;-84
2022/05/18 08:35:31;;;;;;;3.30;1.88;;;;;;;30.73;38.54;101807.38;5033933;28;20462;-83
2022/05/18 08:37:57;;;;;;;8.45;2.78;;;;;;;30.36;38.10;101808.41;5018485;28;20078;-82
2022/05/18 08:40:44;;;;;;;9.57;2.50;;;;;;;30.22;37.93;101813.44;5023620;28;20037;-82
2022/05/18 08:43:16;;;;;;;4.75;2.10;;;;;;;30.35;38.18;101814.03;5022641;28;20029;-84
2022/05/18 08:45:48;;;;;;;9.30;2.80;;;;;;;30.35;38.08;101809.47;5025350;28;20046;-83
2022/05/18 08:48:42;;;;;;;8.37;2.97;;;;;;;30.32;38.12;101810.00;5016882;28;20038;-82
2022/05/18 08:51:21;;;;;;;8.15;2.35;;;;;;;30.92;38.17;101814.88;5021663;28;20057;-83
2022/05/18 08:54:00;;;;;;;11.45;2.80;;;;;;;30.99;37.78;101810.06;5022224;28;20297;-83
2022/05/18 08:56:32;;;;;;;9.13;2.80;;;;;;;31.22;36.95;101806.00;5020207;28;20497;-83
2022/05/18 08:59:02;;;;;;;7.00;2.53;;;;;;;31.21;37.05;101807.88;5036569;28;20072;-83
2022/05/18 09:01:40;;;;;;;11.20;2.33;;;;;;;31.03;37.01;101801.22;5022326;28;20034;-82
2022/05/18 09:04:12;;;;;;;11.35;2.47;;;;;;;31.60;37.46;101809.13;5022803;28;20482;-83
2022/05/18 09:07:03;;;;;;;12.13;2.28;;;;;;;31.64;36.63;101802.16;5009699;28;20033;-84
2022/05/18 09:12:21;;;;;;;7.85;2.28;;;;;;;31.96;36.62;101806.28;5039655;28;20650;-85
2022/05/18 09:14:46;;;;;;;10.80;2.13;;;;;;;32.09;35.65;101808.38;5030098;28;20109;-82
2022/05/18 09:17:19;;;;;;;8.65;2.22;;;;;;;31.72;35.07;101809.63;5024711;28;20069;-83
2022/05/18 09:19:53;;;;;;;7.25;2.40;;;;;;;31.75;35.22;101805.59;5024999;28;20449;-84
2022/05/18 09:22:56;;;;;;;4.93;1.92;;;;;;;31.68;34.00;101808.56;5026827;28;20091;-83
2022/05/18 09:25:45;;;;;;;5.57;1.80;;;;;;;31.89;35.59;101809.28;5023795;28;20100;-84
2022/05/18 09:28:39;;;;;;;5.78;1.92;;;;;;;31.84;35.30;101812.00;5025636;28;20044;-83
2022/05/18 09:31:43;;;;;;;10.95;2.33;;;;;;;31.80;33.99;101808.25;5022112;28;20063;-83
2022/05/18 09:34:38;;;;;;;5.20;2.20;;;;;;;31.98;34.37;101802.25;5006961;28;20026;-84
2022/05/18 09:37:07;;;;;;;7.20;2.60;;;;;;;31.62;35.07;101806.97;5023193;28;20171;-84
2022/05/18 09:39:37;;;;;;;6.47;2.15;;;;;;;31.45;35.49;101801.91;5025721;28;20037;-83
2022/05/18 09:42:11;;;;;;;11.65;2.03;;;;;;;31.76;36.05;101797.28;5025891;28;20433;-83
2022/05/18 09:45:02;;;;;;;7.82;1.98;;;;;;;31.90;35.75;101802.03;5023662;28;20033;-83
2022/05/18 09:47:33;;;;;;;6.20;1.83;;;;;;;31.87;35.08;101791.84;5024185;28;20021;-83
2022/05/18 09:50:06;;;;;;;5.95;1.95;;;;;;;32.11;36.15;101800.06;5027116;28;20030;-83
2022/05/18 09:52:34;;;;;;;9.75;1.75;;;;;;;31.92;34.46;101789.94;5040873;28;20033;-82
2022/05/18 09:55:02;;;;;;;11.88;2.13;;;;;;;31.94;35.15;101787.00;5007442;28;20037;-82
2022/05/18 09:57:45;;;;;;;9.43;1.90;;;;;;;31.92;35.21;101789.16;5011003;28;20030;-82
2022/05/18 10:00:16;;;;;;;8.43;1.75;;;;;;;32.29;35.69;101788.69;5024873;28;20048;-82
2022/05/18 10:08:22;;;;;;;6.97;1.77;;;;;;;32.08;34.51;101776.47;5025598;28;20040;-83
2022/05/18 10:10:55;;;;;;;8.63;2.45;;;;;;;31.76;35.44;101786.56;5024225;28;20117;-83
2022/05/18 10:13:25;;;;;;;5.78;1.98;;;;;;;32.10;34.15;101782.38;5023739;28;20991;-81
2022/05/18 10:16:16;;;;;;;5.20;2.33;;;;;;;32.00;34.47;101783.19;5006829;28;20028;-83
2022/05/18 10:18:49;;;;;;;8.63;2.30;;;;;;;32.04;34.51;101781.59;5023548;28;20044;-82
2022/05/18 10:21:26;;;;;;;8.70;2.05;;;;;;;31.72;35.42;101780.16;5022473;28;20108;-83
2022/05/18 10:23:51;;;;;;;5.45;1.95;;;;;;;31.68;34.91;101784.44;5022329;28;20034;-83
2022/05/18 10:26:22;;;;;;;6.07;2.30;;;;;;;31.59;35.14;101778.88;5003962;28;20113;-81
2022/05/18 10:29:00;;;;;;;8.70;1.98;;;;;;;31.54;34.63;101770.84;5024932;28;20095;-83
2022/05/18 10:31:31;;;;;;;9.48;1.98;;;;;;;31.29;35.37;101777.06;5025416;28;20569;-84
2022/05/18 10:34:21;;;;;;;6.45;2.22;;;;;;;31.38;34.76;101769.25;5024880;28;20045;-84
2022/05/18 10:36:50;;;;;;;9.35;2.10;;;;;;;31.15;35.19;101771.47;5024656;28;20045;-84
2022/05/18 10:39:28;;;;;;;11.35;2.22;;;;;;;31.31;35.98;101766.09;5020932;28;20084;-83
2022/05/18 10:41:54;;;;;;;9.18;2.15;;;;;;;31.64;36.16;101767.31;5024815;28;20033;-84
2022/05/18 10:44:22;;;;;;;5.07;1.85;;;;;;;31.94;35.00;101758.31;5033080;28;20033;-84
2022/05/18 10:46:50;;;;;;;7.05;2.03;;;;;;;31.89;33.78;101768.25;5021875;28;20057;-83
2022/05/18 10:49:28;;;;;;;9.68;2.30;;;;;;;31.80;33.79;101757.31;5035439;28;20363;-84
2022/05/18 10:51:55;;;;;;;4.43;1.90;;;;;;;31.49;34.20;101757.44;5019432;28;20040;-83
2022/05/18 10:54:28;;;;;;;5.22;1.92;;;;;;;31.66;34.79;101765.16;5019014;28;20099;-83
2022/05/18 10:57:10;;;;;;;8.82;2.20;;;;;;;31.59;36.14;101756.59;5009408;28;20025;-83
2022/05/18 10:59:56;;;;;;;4.40;1.83;;;;;;;31.58;35.93;101758.50;5020243;28;20128;-84
2022/05/18 11:02:44;;;;;;;3.25;1.60;;;;;;;32.07;33.96;101748.88;4996633;28;20057;-84
2022/05/18 11:05:29;;;;;;;9.18;2.00;;;;;;;32.35;34.87;101741.16;5021852;28;20045;-83
2022/05/18 11:07:54;;;;;;;8.93;2.65;;;;;;;32.37;34.38;101741.69;5037820;28;20034;-82
2022/05/18 11:10:24;;;;;;;9.00;2.22;;;;;;;31.89;34.17;101742.25;5021021;28;20052;-85
2022/05/18 11:12:59;;;;;;;5.88;2.03;;;;;;;31.94;33.83;101746.78;5024742;28;20456;-83
2022/05/18 11:15:49;;;;;;;7.55;1.80;;;;;;;31.83;34.29;101740.66;5024226;28;20037;-84
2022/05/18 11:18:27;;;;;;;4.15;2.03;;;;;;;31.65;36.32;101735.94;5023726;28;20198;-84
2022/05/18 11:21:03;;;;;;;5.00;2.05;;;;;;;31.61;36.02;101739.19;5023221;28;20033;-84
2022/05/18 11:23:54;;;;;;;3.75;1.92;;;;;;;31.58;35.06;101737.06;5005376;28;20100;-85
2022/05/18 11:26:31;;;;;;;4.28;2.08;;;;;;;31.31;35.54;101742.78;5022446;28;20060;-85
2022/05/18 11:29:23;;;;;;;6.90;1.92;;;;;;;31.28;37.03;101740.63;5006387;28;20414;-84
2022/05/18 11:32:19;;;;;;;5.22;2.10;;;;;;;30.89;36.26;101735.88;5004519;28;20038;-84
2022/05/18 11:35:00;;;;;;;5.88;2.30;;;;;;;30.83;36.90;101737.75;5019992;28;20038;-84
2022/05/18 11:37:59;;;;;;;4.90;1.75;;;;;;;30.90;37.97;101732.16;5020662;28;20509;-84
2022/05/18 11:40:53;;;;;;;8.90;2.10;;;;;;;30.83;36.50;101734.28;5021216;28;20119;-84
2022/05/18 11:43:57;;;;;;;3.97;2.22;;;;;;;30.70;35.81;101727.59;5002512;28;20033;-85
2022/05/18 11:46:53;;;;;;;4.30;1.70;;;;;;;30.58;36.91;101733.25;5019921;28;20022;-83
2022/05/18 11:49:44;;;;;;;3.72;1.70;;;;;;;30.53;36.67;101729.78;5022068;28;20072;-86
2022/05/18 11:52:36;;;;;;;5.45;2.20;;;;;;;30.93;36.90;101725.47;5033748;28;20034;-85
2022/05/18 11:55:35;;;;;;;6.00;1.98;;;;;;;31.18;36.37;101720.03;5037767;28;20041;-84